MMMA/MAM METAR and TAF weather

Enter ICAO airport designator
Station Type Date Time Source
MMMA METAR 2022/05/23 11:56 UTC NOAA

MMMA 231156Z 03005KT 4SM FEW080 SCT200 23/23 A2996 RMK SLP147 5//// 906 8/031 HZ RTS


Station Type Date Time Source
MMMA Decoded METAR 2022/05/23 11:56 UTC NOAA

Matamoros International , Mexico (MMMA) 25-46N 097-32W
May 23, 2022 - 07:56 AM EDT / 2022.05.23 1156 UTC
Wind: from the NNE (030 degrees) at 6 MPH (5 KT):0
Visibility: 4 mile(s):0
Sky conditions: partly cloudy
Temperature: 73 F (23 C)
Dew Point: 73 F (23 C)
Relative Humidity: 100%
Pressure (altimeter): 29.96 in. Hg (1014 hPa)
ob: MMMA 231156Z 03005KT 4SM FEW080 SCT200 23/23 A2996 RMK SLP147 5//// 906 8/031 HZ RTS
cycle: 12

Station Type Date Time Source
MMMA TAF 2022/05/23 13:57 UTC NOAA

TAF
AMD TAF
AMD MMMA 231256Z 2313/2406 05007KT 4SM HZ SCT200
FM231700 12010KT P6SM SCT020 BKN250
TEMPO 2322/2401 15015G25KT
FM240100 12015KT P6SM SCT020 BKN250

Example: see airport list